createdAt,value
2017-11-28T00:00:03.441Z,4.74
2017-11-28T00:02:29.565Z,4.70
2017-11-28T00:05:00.801Z,4.65
2017-11-28T00:07:27.476Z,4.60
2017-11-28T00:09:53.650Z,4.56
2017-11-28T00:12:19.759Z,4.49
2017-11-28T00:14:45.892Z,4.40
2017-11-28T00:17:12.185Z,4.36
2017-11-28T00:19:38.377Z,4.33
2017-11-28T00:22:04.483Z,4.31
2017-11-28T00:24:30.522Z,4.30
2017-11-28T00:26:56.798Z,4.34
2017-11-28T00:29:22.944Z,4.34
2017-11-28T00:31:49.113Z,4.39
2017-11-28T00:34:15.251Z,4.42
2017-11-28T00:36:41.340Z,4.44
2017-11-28T00:39:07.420Z,4.43
2017-11-28T00:41:33.591Z,4.44
2017-11-28T00:43:59.748Z,4.47
2017-11-28T00:46:25.949Z,4.52
2017-11-28T00:48:52.054Z,4.53
2017-11-28T00:51:18.262Z,4.53
2017-11-28T00:53:44.629Z,4.53
2017-11-28T00:56:10.858Z,4.52
2017-11-28T00:58:36.939Z,4.55
2017-11-28T01:01:03.060Z,4.57
2017-11-28T01:03:29.183Z,4.58
2017-11-28T01:05:55.201Z,4.57
2017-11-28T01:08:21.505Z,4.58
2017-11-28T01:10:47.664Z,4.55
2017-11-28T01:13:13.720Z,4.55
2017-11-28T01:15:39.893Z,4.51
2017-11-28T01:18:06.029Z,4.45
2017-11-28T01:20:32.195Z,4.40
2017-11-28T01:22:58.259Z,4.31
2017-11-28T01:25:24.315Z,4.29
2017-11-28T01:27:50.736Z,4.24
2017-11-28T01:30:16.936Z,4.17
2017-11-28T01:32:43.031Z,4.05
2017-11-28T01:35:09.068Z,3.97
2017-11-28T01:37:35.295Z,3.89
2017-11-28T01:40:01.528Z,3.79
2017-11-28T01:42:27.606Z,3.78
2017-11-28T01:44:53.859Z,3.81
2017-11-28T01:47:19.999Z,3.75
2017-11-28T01:49:46.087Z,3.63
2017-11-28T01:52:12.161Z,3.63
2017-11-28T01:54:38.260Z,3.66
2017-11-28T01:57:04.528Z,3.61
2017-11-28T01:59:30.675Z,3.54
2017-11-28T02:01:56.699Z,3.46
2017-11-28T02:04:23.006Z,3.41
2017-11-28T02:06:49.100Z,3.37
2017-11-28T02:09:15.213Z,3.27
2017-11-28T02:11:41.409Z,3.21
2017-11-28T02:14:11.194Z,3.21
2017-11-28T02:16:37.327Z,3.23
2017-11-28T02:19:03.488Z,3.17
2017-11-28T02:21:29.615Z,3.11
2017-11-28T02:23:55.764Z,3.12
2017-11-28T02:26:21.990Z,3.11
2017-11-28T02:28:48.179Z,3.09
2017-11-28T02:31:14.280Z,3.05
2017-11-28T02:33:42.710Z,3.02
2017-11-28T02:36:08.799Z,3.00
2017-11-28T02:38:35.332Z,2.99
2017-11-28T02:41:09.535Z,3.05
2017-11-28T02:43:35.741Z,3.11
2017-11-28T02:46:01.935Z,3.11
2017-11-28T02:48:28.027Z,3.13
2017-11-28T02:50:55.078Z,3.09
2017-11-28T02:53:21.185Z,3.01
2017-11-28T02:55:53.398Z,2.98
2017-11-28T02:58:20.450Z,2.99
2017-11-28T03:00:52.580Z,3.00
2017-11-28T03:03:18.784Z,3.01
2017-11-28T03:05:44.888Z,2.96
2017-11-28T03:08:11.006Z,2.99
2017-11-28T03:10:47.848Z,3.03
2017-11-28T03:13:16.418Z,3.21
2017-11-28T03:18:51.494Z,3.20
2017-11-28T03:21:19.672Z,3.12
2017-11-28T03:26:53.486Z,3.33
2017-11-28T03:29:21.781Z,3.34
2017-11-28T03:31:47.956Z,3.38
2017-11-28T03:34:14.113Z,3.36
2017-11-28T03:36:40.469Z,3.30
2017-11-28T03:39:06.645Z,3.24
2017-11-28T03:41:32.802Z,3.18
2017-11-28T03:43:59.497Z,3.26
2017-11-28T03:46:25.696Z,3.46
2017-11-28T03:48:52.925Z,3.40
2017-11-28T03:51:19.191Z,3.29
2017-11-28T03:53:45.280Z,3.27
2017-11-28T03:56:11.821Z,3.26
2017-11-28T03:58:38.041Z,3.18
2017-11-28T04:01:04.150Z,3.11
2017-11-28T04:03:30.289Z,3.06
2017-11-28T04:05:56.621Z,3.08
2017-11-28T04:08:22.923Z,3.06
2017-11-28T04:10:49.137Z,3.06
2017-11-28T04:13:15.569Z,3.02
2017-11-28T04:15:41.825Z,2.95
2017-11-28T04:18:08.054Z,2.97
2017-11-28T04:20:34.401Z,3.15
2017-11-28T04:23:01.118Z,3.19
2017-11-28T04:25:27.511Z,3.18
2017-11-28T04:27:53.626Z,3.28
2017-11-28T04:30:19.668Z,3.27
2017-11-28T04:32:45.844Z,3.15
2017-11-28T04:35:11.980Z,3.04
2017-11-28T04:37:37.983Z,3.02
2017-11-28T04:40:04.123Z,3.02
2017-11-28T04:42:30.229Z,3.00
2017-11-28T04:44:56.408Z,3.04
2017-11-28T04:47:22.543Z,3.20
2017-11-28T04:49:49.027Z,3.25
2017-11-28T04:52:15.220Z,3.20
2017-11-28T04:54:41.571Z,3.13
2017-11-28T04:57:07.701Z,3.11
2017-11-28T04:59:33.983Z,3.10
2017-11-28T05:02:00.160Z,3.05
2017-11-28T05:04:26.271Z,2.98
2017-11-28T05:06:52.449Z,2.97
2017-11-28T05:09:18.542Z,2.99
2017-11-28T05:11:44.709Z,3.01
2017-11-28T05:14:11.238Z,3.05
2017-11-28T05:16:37.674Z,3.08
2017-11-28T05:19:06.402Z,3.04
2017-11-28T05:21:32.624Z,2.97
2017-11-28T05:23:58.782Z,2.98
2017-11-28T05:26:24.991Z,3.07
2017-11-28T05:28:51.033Z,3.12
2017-11-28T05:31:17.316Z,3.16
2017-11-28T05:33:43.489Z,3.25
2017-11-28T05:36:09.603Z,3.18
2017-11-28T05:38:35.720Z,3.08
2017-11-28T05:41:02.042Z,2.97
2017-11-28T05:43:28.168Z,2.91
2017-11-28T05:45:54.308Z,2.86
2017-11-28T05:48:20.539Z,2.81
2017-11-28T05:50:46.747Z,2.78
2017-11-28T05:53:13.007Z,2.77
2017-11-28T05:55:39.122Z,2.82
2017-11-28T05:58:05.332Z,2.89
2017-11-28T06:00:31.673Z,2.96
2017-11-28T06:02:57.827Z,2.94
2017-11-28T06:05:23.972Z,2.88
2017-11-28T06:07:50.260Z,2.82
2017-11-28T06:10:16.546Z,2.83
2017-11-28T06:12:42.612Z,2.86
2017-11-28T06:15:08.749Z,2.90
2017-11-28T06:17:34.932Z,2.94
2017-11-28T06:20:01.276Z,3.01
2017-11-28T06:22:27.428Z,3.08
2017-11-28T06:24:53.613Z,3.10
2017-11-28T06:27:19.872Z,3.09
2017-11-28T06:29:46.130Z,3.07
2017-11-28T06:32:12.498Z,3.11
2017-11-28T06:34:38.791Z,3.14
2017-11-28T06:37:04.985Z,3.23
2017-11-28T06:39:33.097Z,3.25
2017-11-28T06:41:59.230Z,3.29
2017-11-28T06:44:25.343Z,3.33
2017-11-28T06:46:51.831Z,3.35
2017-11-28T06:49:17.998Z,3.39
2017-11-28T06:51:44.427Z,3.40
2017-11-28T06:54:10.751Z,3.46
2017-11-28T06:56:36.864Z,3.47
2017-11-28T06:59:03.224Z,3.49
2017-11-28T07:01:29.370Z,3.53
2017-11-28T07:03:56.984Z,3.57
2017-11-28T07:09:16.077Z,3.65
2017-11-28T07:11:42.282Z,3.67
2017-11-28T07:14:09.261Z,3.71
2017-11-28T07:16:35.368Z,3.74
2017-11-28T07:19:01.461Z,3.77
2017-11-28T07:21:27.611Z,3.81
2017-11-28T07:23:53.914Z,3.87
2017-11-28T07:26:20.779Z,3.93
2017-11-28T07:28:47.095Z,4.01
2017-11-28T07:31:13.708Z,4.07
2017-11-28T07:33:39.794Z,4.11
2017-11-28T07:36:06.894Z,4.17
2017-11-28T07:38:34.102Z,4.25
2017-11-28T07:41:01.683Z,4.35
2017-11-28T07:43:28.349Z,4.47
2017-11-28T07:45:54.879Z,4.51
2017-11-28T07:48:21.599Z,4.56
2017-11-28T07:50:48.279Z,4.62
2017-11-28T07:53:15.285Z,4.69
2017-11-28T07:55:41.952Z,4.79
2017-11-28T07:58:08.662Z,4.89
2017-11-28T08:00:35.360Z,4.97
2017-11-28T08:03:01.864Z,5.05
2017-11-28T08:05:28.206Z,5.11
2017-11-28T08:07:54.788Z,5.21
2017-11-28T08:10:20.929Z,5.31
2017-11-28T08:12:47.027Z,5.38
2017-11-28T08:15:13.187Z,5.47
2017-11-28T08:17:39.266Z,5.52
2017-11-28T08:20:05.952Z,5.60
2017-11-28T08:22:32.281Z,5.70
2017-11-28T08:24:58.683Z,5.77
2017-11-28T08:27:25.074Z,5.84
2017-11-28T08:29:51.576Z,5.91
2017-11-28T08:32:17.818Z,5.97
2017-11-28T08:34:44.013Z,6.00
2017-11-28T08:37:10.415Z,5.98
2017-11-28T08:39:36.595Z,5.95
2017-11-28T08:42:02.852Z,5.95
2017-11-28T08:44:29.221Z,5.92
2017-11-28T08:46:55.515Z,5.97
2017-11-28T08:49:21.635Z,6.07
2017-11-28T08:51:48.370Z,6.18
2017-11-28T08:54:14.653Z,6.26
2017-11-28T08:56:40.775Z,6.30
2017-11-28T08:59:06.876Z,6.32
2017-11-28T09:01:33.121Z,6.34
2017-11-28T09:03:59.361Z,6.40
2017-11-28T09:06:25.503Z,6.34
2017-11-28T09:08:51.990Z,6.29
2017-11-28T09:11:18.025Z,6.22
2017-11-28T09:13:44.451Z,6.20
2017-11-28T09:19:04.627Z,6.22
2017-11-28T09:21:38.049Z,6.23
2017-11-28T09:24:04.371Z,6.23
2017-11-28T09:26:30.757Z,6.20
2017-11-28T09:31:49.997Z,6.09
2017-11-28T09:34:16.422Z,6.03
2017-11-28T09:36:42.514Z,5.96
2017-11-28T09:42:01.939Z,5.85
2017-11-28T09:44:28.056Z,5.86
2017-11-28T09:46:54.200Z,5.90
2017-11-28T09:49:20.281Z,5.90
2017-11-28T09:51:53.515Z,5.91
2017-11-28T09:54:19.929Z,5.93
2017-11-28T09:56:46.006Z,6.00
2017-11-28T09:59:12.095Z,6.06
2017-11-28T10:01:38.319Z,6.12
2017-11-28T10:04:04.849Z,6.14
2017-11-28T10:06:31.457Z,6.17
2017-11-28T10:08:57.904Z,6.22
2017-11-28T10:11:23.977Z,6.24
2017-11-28T10:14:37.865Z,6.23
2017-11-28T10:17:04.101Z,6.20
2017-11-28T10:19:30.155Z,6.20
2017-11-28T10:21:56.256Z,6.06
2017-11-28T10:24:22.407Z,6.08
2017-11-28T10:26:49.106Z,6.02
2017-11-28T10:29:15.600Z,6.02
2017-11-28T10:31:41.682Z,6.01
2017-11-28T10:34:08.096Z,6.04
2017-11-28T10:36:34.200Z,6.01
2017-11-28T10:39:00.252Z,5.99
2017-11-28T10:41:26.811Z,5.98
2017-11-28T10:43:52.816Z,5.99
2017-11-28T10:46:19.062Z,5.98
2017-11-28T10:48:45.201Z,6.00
2017-11-28T10:51:13.466Z,6.03
2017-11-28T10:53:39.560Z,6.03
2017-11-28T10:56:05.767Z,6.08
2017-11-28T10:58:32.417Z,6.15
2017-11-28T11:00:58.650Z,6.14
2017-11-28T11:03:25.008Z,6.16
2017-11-28T11:05:51.091Z,6.17
2017-11-28T11:08:17.198Z,6.20
2017-11-28T11:10:54.342Z,6.21
2017-11-28T11:13:20.944Z,6.34
2017-11-28T11:15:47.813Z,6.40
2017-11-28T11:21:06.351Z,6.59
2017-11-28T11:23:32.404Z,6.60
2017-11-28T11:25:58.598Z,6.57
2017-11-28T11:28:24.719Z,6.64
2017-11-28T11:30:52.399Z,6.52
2017-11-28T11:33:18.486Z,6.59
2017-11-28T11:35:44.569Z,6.52
2017-11-28T11:38:10.866Z,6.44
2017-11-28T11:40:37.885Z,6.46
2017-11-28T11:43:04.325Z,6.41
2017-11-28T11:45:30.567Z,6.45
2017-11-28T11:47:56.605Z,6.54
2017-11-28T11:50:22.682Z,6.59
2017-11-28T11:52:48.875Z,6.66
2017-11-28T11:55:15.145Z,6.74
2017-11-28T11:57:41.338Z,6.75
2017-11-28T12:00:07.562Z,6.77
2017-11-28T12:02:34.272Z,6.78
2017-11-28T12:05:00.636Z,6.77
2017-11-28T12:07:26.836Z,6.71
2017-11-28T12:15:21.544Z,6.76
2017-11-28T12:17:47.985Z,6.70
2017-11-28T12:20:16.554Z,6.69
2017-11-28T12:22:43.191Z,6.67
2017-11-28T12:25:09.676Z,6.70
2017-11-28T12:27:38.103Z,6.77
2017-11-28T12:30:04.461Z,6.73
2017-11-28T12:32:30.887Z,6.68
2017-11-28T12:34:57.241Z,6.61
2017-11-28T12:37:23.572Z,6.54
2017-11-28T12:39:50.086Z,6.48
2017-11-28T12:42:16.517Z,6.45
2017-11-28T12:44:43.316Z,6.45
2017-11-28T12:47:09.571Z,6.51
2017-11-28T12:49:36.117Z,6.56
2017-11-28T12:52:02.641Z,6.64
2017-11-28T12:54:29.012Z,6.73
2017-11-28T12:56:55.738Z,6.82
2017-11-28T12:59:22.309Z,6.89
2017-11-28T13:01:48.808Z,6.94
2017-11-28T13:04:15.293Z,6.93
2017-11-28T13:06:41.713Z,6.98
2017-11-28T13:09:08.832Z,6.98
2017-11-28T13:11:35.412Z,7.02
2017-11-28T13:14:02.217Z,7.07
2017-11-28T13:16:28.771Z,7.10
2017-11-28T13:18:55.429Z,7.06
2017-11-28T13:21:22.739Z,7.07
2017-11-28T13:23:49.108Z,7.07
2017-11-28T13:26:15.457Z,7.15
2017-11-28T13:28:41.966Z,7.17
2017-11-28T13:31:09.214Z,7.15
2017-11-28T13:33:35.519Z,7.19
2017-11-28T13:38:51.970Z,7.07
2017-11-28T13:41:18.372Z,6.95
2017-11-28T13:43:45.121Z,6.90
2017-11-28T13:46:22.013Z,6.87
2017-11-28T13:49:00.561Z,6.83
2017-11-28T13:51:27.011Z,6.77
2017-11-28T13:53:53.346Z,6.68
2017-11-28T13:56:20.201Z,6.58
2017-11-28T13:58:54.123Z,6.52
2017-11-28T14:01:20.475Z,6.51
2017-11-28T14:03:48.917Z,6.44
2017-11-28T14:06:16.538Z,6.41
2017-11-28T14:11:15.080Z,6.41
2017-11-28T14:13:41.422Z,6.34
2017-11-28T14:16:07.839Z,6.30
2017-11-28T14:18:36.377Z,6.28
2017-11-28T14:24:12.140Z,6.25
2017-11-28T14:26:53.841Z,6.24
2017-11-28T14:29:21.286Z,6.21
2017-11-28T14:37:42.306Z,6.09
2017-11-28T14:40:09.929Z,6.07
2017-11-28T14:45:25.147Z,6.05
2017-11-28T14:47:54.313Z,6.03
2017-11-28T15:04:34.000Z,5.89
2017-11-28T15:07:07.971Z,5.86
2017-11-28T15:13:05.892Z,5.81
2017-11-28T15:15:44.972Z,5.79
2017-11-28T15:18:27.245Z,5.78
2017-11-28T15:23:48.571Z,5.75
2017-11-28T15:26:17.668Z,5.72
2017-11-28T15:28:50.015Z,5.69
2017-11-28T15:31:16.585Z,5.65
2017-11-28T15:33:43.377Z,5.61
2017-11-28T15:36:11.996Z,5.58
2017-11-28T15:38:38.381Z,5.53
2017-11-28T15:41:05.841Z,5.49
2017-11-28T15:43:32.514Z,5.45
2017-11-28T15:45:58.900Z,5.40
2017-11-28T15:48:26.264Z,5.34
2017-11-28T15:50:52.951Z,5.30
2017-11-28T15:53:19.075Z,5.29
2017-11-28T15:55:46.732Z,5.28
2017-11-28T15:58:12.858Z,5.27
2017-11-28T16:00:39.713Z,5.26
2017-11-28T16:03:06.120Z,5.25
2017-11-28T16:05:33.296Z,5.26
2017-11-28T16:07:59.497Z,5.26
2017-11-28T16:10:25.684Z,5.27
2017-11-28T16:12:53.714Z,5.26
2017-11-28T16:15:19.982Z,5.26
2017-11-28T16:17:46.086Z,5.23
2017-11-28T16:20:13.846Z,5.21
2017-11-28T16:22:40.240Z,5.20
2017-11-28T16:25:06.515Z,5.20
2017-11-28T16:27:32.688Z,5.27
2017-11-28T16:29:59.207Z,5.35
2017-11-28T16:32:25.287Z,5.37
2017-11-28T16:34:51.437Z,5.41
2017-11-28T16:37:17.571Z,5.40
2017-11-28T16:39:44.365Z,5.40
2017-11-28T16:42:11.876Z,5.43
2017-11-28T16:44:37.941Z,5.46
2017-11-28T16:47:04.076Z,5.49
2017-11-28T16:49:30.213Z,5.55
2017-11-28T16:51:56.465Z,5.52
2017-11-28T16:54:22.607Z,5.58
2017-11-28T16:56:49.063Z,5.55
2017-11-28T16:59:15.352Z,5.48
2017-11-28T17:01:42.595Z,5.45
2017-11-28T17:04:09.121Z,5.41
2017-11-28T17:06:35.532Z,5.36
2017-11-28T17:09:01.797Z,5.36
2017-11-28T17:11:28.107Z,5.32
2017-11-28T17:13:54.226Z,5.34
2017-11-28T17:16:20.473Z,5.26
2017-11-28T17:18:49.687Z,5.24
2017-11-28T17:21:19.438Z,5.27
2017-11-28T17:23:45.695Z,5.21
2017-11-28T17:26:11.778Z,5.19
2017-11-28T17:28:38.139Z,5.16
2017-11-28T17:31:04.285Z,5.13
2017-11-28T17:33:32.899Z,5.18
2017-11-28T17:35:59.358Z,5.13
2017-11-28T17:38:25.617Z,5.12
2017-11-28T17:40:52.223Z,5.09
2017-11-28T17:43:18.638Z,5.17
2017-11-28T17:45:44.780Z,5.12
2017-11-28T17:48:11.206Z,5.02
2017-11-28T17:50:37.606Z,5.00
2017-11-28T17:53:03.740Z,4.94
2017-11-28T17:55:31.381Z,4.91
2017-11-28T17:57:57.631Z,4.92
2017-11-28T18:00:23.836Z,4.86
2017-11-28T18:02:50.286Z,4.82
2017-11-28T18:05:16.337Z,4.80
2017-11-28T18:07:42.527Z,4.74
2017-11-28T18:10:09.016Z,4.72
2017-11-28T18:12:35.067Z,4.65
2017-11-28T18:15:01.276Z,4.55
2017-11-28T18:17:27.693Z,4.51
2017-11-28T18:19:53.828Z,4.48
2017-11-28T18:22:21.433Z,4.45
2017-11-28T18:24:47.737Z,4.37
2017-11-28T18:27:13.923Z,4.39
2017-11-28T18:29:40.163Z,4.36
2017-11-28T18:32:06.839Z,4.30
2017-11-28T18:34:32.905Z,4.27
2017-11-28T18:36:59.836Z,4.31
2017-11-28T18:39:26.353Z,4.30
2017-11-28T18:41:54.364Z,4.22
2017-11-28T18:44:21.905Z,4.18
2017-11-28T18:46:50.596Z,4.19
2017-11-28T18:49:17.460Z,4.19
2017-11-28T18:51:50.873Z,4.21
2017-11-28T18:54:17.336Z,4.18
2017-11-28T18:56:43.978Z,4.17
2017-11-28T18:59:10.680Z,4.19
2017-11-28T19:01:37.245Z,4.24
2017-11-28T19:04:04.227Z,4.21
2017-11-28T19:06:30.752Z,4.18
2017-11-28T19:09:05.610Z,4.16
2017-11-28T19:11:32.312Z,4.20
2017-11-28T19:13:58.410Z,4.24
2017-11-28T19:16:24.635Z,4.19
2017-11-28T19:18:51.335Z,4.18
2017-11-28T19:21:17.879Z,4.18
2017-11-28T19:23:44.317Z,4.13
2017-11-28T19:26:11.625Z,4.10
2017-11-28T19:28:38.158Z,4.05
2017-11-28T19:31:04.639Z,4.02
2017-11-28T19:33:31.547Z,4.03
2017-11-28T19:35:58.876Z,3.99
2017-11-28T19:38:25.437Z,4.00
2017-11-28T19:40:56.943Z,3.97
2017-11-28T19:43:23.454Z,3.94
2017-11-28T19:45:49.765Z,3.93
2017-11-28T19:48:16.191Z,3.94
2017-11-28T19:50:42.691Z,3.93
2017-11-28T19:53:08.916Z,3.91
2017-11-28T19:55:35.102Z,3.88
2017-11-28T19:58:02.363Z,3.90
2017-11-28T20:00:28.626Z,3.90
2017-11-28T20:02:55.948Z,3.90
2017-11-28T20:05:22.272Z,3.95
2017-11-28T20:07:48.501Z,3.98
2017-11-28T20:10:15.035Z,3.96
2017-11-28T20:12:43.170Z,3.93
2017-11-28T20:15:09.344Z,3.91
2017-11-28T20:17:36.083Z,3.88
2017-11-28T20:20:02.355Z,3.87
2017-11-28T20:22:28.600Z,3.85
2017-11-28T20:24:54.874Z,3.84
2017-11-28T20:27:21.078Z,3.83
2017-11-28T20:29:47.426Z,3.84
2017-11-28T20:32:13.763Z,3.85
2017-11-28T20:34:40.031Z,3.85
2017-11-28T20:37:06.281Z,3.86
2017-11-28T20:39:32.604Z,3.86
2017-11-28T20:41:59.055Z,3.87
2017-11-28T20:44:25.621Z,3.88
2017-11-28T20:46:52.057Z,3.89
2017-11-28T20:49:24.099Z,3.89
2017-11-28T20:51:50.569Z,3.91
2017-11-28T20:54:16.746Z,3.92
2017-11-28T20:56:45.212Z,3.95
2017-11-28T20:59:11.805Z,3.98
2017-11-28T21:01:38.308Z,3.98
2017-11-28T21:04:05.536Z,4.03
2017-11-28T21:06:39.369Z,4.03
2017-11-28T21:09:06.240Z,4.03
2017-11-28T21:11:33.124Z,4.04
2017-11-28T21:14:00.244Z,4.05
2017-11-28T21:16:26.765Z,4.04
2017-11-28T21:18:54.208Z,4.05
2017-11-28T21:21:20.544Z,4.04
2017-11-28T21:23:47.155Z,4.05
2017-11-28T21:26:13.741Z,4.03
2017-11-28T21:28:40.354Z,4.02
2017-11-28T21:31:07.138Z,4.01
2017-11-28T21:44:10.491Z,4.04
2017-11-28T21:54:31.120Z,4.06
2017-11-28T21:57:00.266Z,4.05
2017-11-28T22:08:10.246Z,4.01
2017-11-28T22:21:03.295Z,3.95
2017-11-28T22:23:38.801Z,3.94
2017-11-28T22:26:10.533Z,3.93
2017-11-28T22:31:15.075Z,3.92
2017-11-28T22:33:45.309Z,3.92
2017-11-28T22:49:12.130Z,3.92
2017-11-28T22:51:43.068Z,3.92
2017-11-28T22:54:09.299Z,3.93
2017-11-28T22:56:35.738Z,3.93
2017-11-28T22:59:01.841Z,3.91
2017-11-28T23:01:27.961Z,3.91
2017-11-28T23:03:54.165Z,3.92
2017-11-28T23:06:20.479Z,3.92
2017-11-28T23:08:46.921Z,3.92
2017-11-28T23:11:14.073Z,3.92
2017-11-28T23:13:52.630Z,3.91
2017-11-28T23:16:18.977Z,3.91
2017-11-28T23:18:45.015Z,3.91
2017-11-28T23:21:11.120Z,3.92
2017-11-28T23:23:37.299Z,3.92
2017-11-28T23:26:03.416Z,3.92
2017-11-28T23:28:29.452Z,3.92
2017-11-28T23:30:55.508Z,3.90
2017-11-28T23:33:21.590Z,3.90
2017-11-28T23:35:47.651Z,3.89
2017-11-28T23:38:13.798Z,3.89
2017-11-28T23:40:40.034Z,3.88
2017-11-28T23:43:06.133Z,3.87
2017-11-28T23:45:32.258Z,3.85
2017-11-28T23:47:58.477Z,3.86
2017-11-28T23:50:24.740Z,3.87
2017-11-28T23:52:50.908Z,3.87
2017-11-28T23:55:17.045Z,3.85
2017-11-28T23:57:43.169Z,3.84
